createdAt,value
2019-01-12T00:00:41.473Z,102594.48
2019-01-12T00:03:10.541Z,102596.16
2019-01-12T00:05:39.597Z,102600.95
2019-01-12T00:08:08.625Z,102594.53
2019-01-12T00:10:38.018Z,102589.61
2019-01-12T00:13:07.163Z,102599.03
2019-01-12T00:15:36.567Z,102590.98
2019-01-12T00:18:05.561Z,102598.88
2019-01-12T00:20:35.001Z,102580.56
2019-01-12T00:23:04.373Z,102582.09
2019-01-12T00:25:33.378Z,102578.48
2019-01-12T00:28:02.819Z,102576.17
2019-01-12T00:30:32.169Z,102572.77
2019-01-12T00:33:01.755Z,102569.72
2019-01-12T00:35:30.807Z,102568.82
2019-01-12T00:37:59.815Z,102567.55
2019-01-12T00:40:28.873Z,102566.36
2019-01-12T00:42:57.954Z,102568.72
2019-01-12T00:45:27.339Z,102562.31
2019-01-12T00:47:56.424Z,102556.83
2019-01-12T00:50:25.788Z,102559.50
2019-01-12T00:52:54.853Z,102554.96
2019-01-12T00:55:24.247Z,102550.80
2019-01-12T00:57:53.668Z,102543.56
2019-01-12T01:00:23.425Z,102539.61
2019-01-12T01:02:52.483Z,102535.97
2019-01-12T01:05:21.522Z,102542.69
2019-01-12T01:07:50.546Z,102547.45
2019-01-12T01:10:21.442Z,102539.13
2019-01-12T01:12:50.474Z,102547.59
2019-01-12T01:15:20.019Z,102545.47
2019-01-12T01:17:49.077Z,102545.79
2019-01-12T01:20:18.200Z,102546.67
2019-01-12T01:22:47.263Z,102536.28
2019-01-12T01:25:16.266Z,102527.55
2019-01-12T01:27:45.281Z,102537.80
2019-01-12T01:30:17.301Z,102540.67
2019-01-12T01:32:46.608Z,102538.50
2019-01-12T01:35:15.978Z,102536.80
2019-01-12T01:37:45.356Z,102537.23
2019-01-12T01:40:16.547Z,102532.41
2019-01-12T01:42:45.594Z,102533.05
2019-01-12T01:45:15.649Z,102538.66
2019-01-12T01:47:44.637Z,102534.03
2019-01-12T01:50:14.714Z,102529.88
2019-01-12T01:52:43.747Z,102526.77
2019-01-12T01:55:13.347Z,102521.39
2019-01-12T01:57:42.382Z,102521.34
2019-01-12T02:00:14.487Z,102517.00
2019-01-12T02:02:43.556Z,102514.40
2019-01-12T02:05:12.571Z,102523.03
2019-01-12T02:07:41.629Z,102519.05
2019-01-12T02:10:19.284Z,102517.12
2019-01-12T02:12:48.667Z,102517.50
2019-01-12T02:15:18.377Z,102504.87
2019-01-12T02:17:48.006Z,102511.99
2019-01-12T02:20:17.006Z,102508.17
2019-01-12T02:22:46.332Z,102498.31
2019-01-12T02:25:15.338Z,102499.65
2019-01-12T02:27:44.414Z,102499.85
2019-01-12T02:30:23.216Z,102494.73
2019-01-12T02:32:52.614Z,102491.66
2019-01-12T02:35:21.633Z,102482.59
2019-01-12T02:37:50.997Z,102482.80
2019-01-12T02:40:20.014Z,102476.43
2019-01-12T02:42:49.074Z,102475.45
2019-01-12T02:45:18.738Z,102474.02
2019-01-12T02:47:48.051Z,102470.30
2019-01-12T02:50:17.376Z,102471.50
2019-01-12T02:52:46.402Z,102464.15
2019-01-12T02:55:15.456Z,102463.00
2019-01-12T02:57:44.477Z,102463.00
2019-01-12T03:00:16.049Z,102460.09
2019-01-12T03:02:45.364Z,102444.50
2019-01-12T03:05:15.162Z,102437.81
2019-01-12T03:07:44.337Z,102426.56
2019-01-12T03:10:15.106Z,102426.70
2019-01-12T03:12:44.428Z,102429.52
2019-01-12T03:15:15.778Z,102437.45
2019-01-12T03:17:45.395Z,102422.51
2019-01-12T03:20:16.235Z,102422.13
2019-01-12T03:22:45.652Z,102430.13
2019-01-12T03:25:18.343Z,102434.76
2019-01-12T03:27:45.479Z,102419.78
2019-01-12T03:30:19.061Z,102416.97
2019-01-12T03:32:48.124Z,102413.98
2019-01-12T03:35:17.386Z,102414.44
2019-01-12T03:37:47.193Z,102413.66
2019-01-12T03:40:20.898Z,102422.56
2019-01-12T03:42:50.045Z,102411.32
2019-01-12T03:45:20.295Z,102410.26
2019-01-12T03:47:49.860Z,102415.82
2019-01-12T03:50:19.120Z,102406.50
2019-01-12T03:52:48.358Z,102411.63
2019-01-12T03:55:25.190Z,102409.52
2019-01-12T03:57:48.947Z,102407.59
2019-01-12T04:00:21.321Z,102412.45
2019-01-12T04:02:50.379Z,102411.47
2019-01-12T04:05:19.911Z,102412.39
2019-01-12T04:07:49.268Z,102411.65
2019-01-12T04:10:18.302Z,102414.93
2019-01-12T04:12:47.769Z,102410.94
2019-01-12T04:15:16.811Z,102409.60
2019-01-12T04:17:45.881Z,102407.18
2019-01-12T04:20:16.196Z,102408.66
2019-01-12T04:22:45.250Z,102409.66
2019-01-12T04:25:14.526Z,102398.86
2019-01-12T04:27:43.570Z,102406.65
2019-01-12T04:30:17.402Z,102402.00
2019-01-12T04:32:47.239Z,102406.65
2019-01-12T04:35:16.845Z,102400.67
2019-01-12T04:37:46.308Z,102402.80
2019-01-12T04:40:20.062Z,102389.87
2019-01-12T04:42:49.140Z,102388.30
2019-01-12T04:45:18.163Z,102384.95
2019-01-12T04:47:47.472Z,102384.36
2019-01-12T04:50:17.924Z,102381.59
2019-01-12T04:52:47.325Z,102381.59
2019-01-12T04:55:17.036Z,102377.66
2019-01-12T04:57:46.089Z,102368.98
2019-01-12T05:00:19.262Z,102364.04
2019-01-12T05:02:48.589Z,102373.95
2019-01-12T05:05:17.776Z,102367.89
2019-01-12T05:07:47.168Z,102367.12
2019-01-12T05:10:16.356Z,102361.92
2019-01-12T05:12:45.678Z,102356.32
2019-01-12T05:15:15.932Z,102361.66
2019-01-12T05:17:44.962Z,102355.35
2019-01-12T05:20:19.201Z,102352.12
2019-01-12T05:22:48.560Z,102349.53
2019-01-12T05:25:18.848Z,102345.19
2019-01-12T05:27:47.890Z,102345.68
2019-01-12T05:30:19.241Z,102342.94
2019-01-12T05:32:48.256Z,102343.96
2019-01-12T05:35:17.288Z,102337.69
2019-01-12T05:37:46.662Z,102338.87
2019-01-12T05:40:15.723Z,102338.60
2019-01-12T05:42:44.804Z,102341.34
2019-01-12T05:45:14.374Z,102331.37
2019-01-12T05:47:43.415Z,102329.62
2019-01-12T05:50:13.656Z,102325.91
2019-01-12T05:52:42.992Z,102328.75
2019-01-12T05:55:12.026Z,102326.66
2019-01-12T05:57:41.438Z,102330.22
2019-01-12T06:00:14.586Z,102324.63
2019-01-12T06:02:43.598Z,102317.09
2019-01-12T06:05:12.618Z,102304.61
2019-01-12T06:07:41.669Z,102311.97
2019-01-12T06:10:10.907Z,102305.66
2019-01-12T06:12:39.940Z,102300.19
2019-01-12T06:15:09.372Z,102299.00
2019-01-12T06:17:38.423Z,102297.84
2019-01-12T06:20:08.447Z,102289.44
2019-01-12T06:22:37.456Z,102290.77
2019-01-12T06:25:06.617Z,102293.53
2019-01-12T06:27:36.022Z,102286.73
2019-01-12T06:30:09.192Z,102286.95
2019-01-12T06:32:38.247Z,102283.80
2019-01-12T06:35:07.402Z,102287.33
2019-01-12T06:37:36.432Z,102280.95
2019-01-12T06:40:07.878Z,102280.33
2019-01-12T06:42:36.937Z,102265.51
2019-01-12T06:45:07.742Z,102269.64
2019-01-12T06:47:36.778Z,102262.78
2019-01-12T06:50:06.931Z,102259.09
2019-01-12T06:52:36.350Z,102258.03
2019-01-12T06:55:06.508Z,102259.27
2019-01-12T06:57:35.532Z,102260.97
2019-01-12T07:00:07.993Z,102246.41
2019-01-12T07:02:37.429Z,102246.48
2019-01-12T07:05:07.239Z,102244.64
2019-01-12T07:07:36.256Z,102234.34
2019-01-12T07:10:06.771Z,102222.55
2019-01-12T07:12:35.790Z,102227.33
2019-01-12T07:15:05.785Z,102222.69
2019-01-12T07:17:34.818Z,102222.44
2019-01-12T07:20:04.664Z,102231.05
2019-01-12T07:22:33.671Z,102234.64
2019-01-12T07:25:02.819Z,102244.20
2019-01-12T07:27:31.932Z,102239.97
2019-01-12T07:30:01.114Z,102251.14
2019-01-12T07:32:30.141Z,102239.75
2019-01-12T07:34:59.188Z,102227.78
2019-01-12T07:37:28.219Z,102233.95
2019-01-12T07:39:57.272Z,102226.43
2019-01-12T07:42:26.802Z,102223.77
2019-01-12T07:44:55.895Z,102227.38
2019-01-12T07:47:25.262Z,102220.45
2019-01-12T07:49:54.320Z,102221.78
2019-01-12T07:52:23.633Z,102229.64
2019-01-12T07:54:52.979Z,102215.25
2019-01-12T07:57:22.008Z,102212.47
2019-01-12T07:59:51.071Z,102211.25
2019-01-12T08:02:20.120Z,102207.16
2019-01-12T08:04:49.217Z,102203.64
2019-01-12T08:07:18.258Z,102205.48
2019-01-12T08:09:47.487Z,102207.92
2019-01-12T08:12:16.510Z,102211.56
2019-01-12T08:14:45.570Z,102217.17
2019-01-12T08:17:14.575Z,102210.51
2019-01-12T08:19:44.013Z,102217.27
2019-01-12T08:22:13.052Z,102198.30
2019-01-12T08:24:42.217Z,102188.85
2019-01-12T08:27:11.549Z,102181.46
2019-01-12T08:29:40.988Z,102188.12
2019-01-12T08:32:10.412Z,102184.86
2019-01-12T08:34:39.466Z,102180.36
2019-01-12T08:37:08.537Z,102195.30
2019-01-12T08:39:37.930Z,102186.20
2019-01-12T08:42:07.014Z,102170.68
2019-01-12T08:44:36.408Z,102167.52
2019-01-12T08:47:05.871Z,102165.69
2019-01-12T08:49:34.916Z,102165.34
2019-01-12T08:52:03.951Z,102164.61
2019-01-12T08:54:33.311Z,102155.28
2019-01-12T08:57:02.338Z,102145.94
2019-01-12T08:59:31.427Z,102145.33
2019-01-12T09:02:00.579Z,102140.62
2019-01-12T09:04:29.665Z,102148.13
2019-01-12T09:06:58.733Z,102148.02
2019-01-12T09:09:27.792Z,102156.02
2019-01-12T09:11:56.860Z,102164.38
2019-01-12T09:14:25.966Z,102160.48
2019-01-12T09:16:56.028Z,102146.30
2019-01-12T09:19:25.101Z,102137.12
2019-01-12T09:21:54.195Z,102122.16
2019-01-12T09:24:23.354Z,102117.81
2019-01-12T09:26:52.363Z,102119.14
2019-01-12T09:29:21.762Z,102117.95
2019-01-12T09:31:51.171Z,102104.98
2019-01-12T09:34:20.236Z,102099.59
2019-01-12T09:36:49.691Z,102094.16
2019-01-12T09:39:18.873Z,102085.64
2019-01-12T09:41:47.901Z,102094.64
2019-01-12T09:44:16.955Z,102082.59
2019-01-12T09:46:46.463Z,102083.34
2019-01-12T09:49:15.576Z,102091.36
2019-01-12T09:51:44.648Z,102073.53
2019-01-12T09:54:14.092Z,102065.38
2019-01-12T09:56:43.446Z,102072.06
2019-01-12T09:59:12.921Z,102063.70
2019-01-12T10:01:42.059Z,102062.23
2019-01-12T10:04:11.407Z,102048.66
2019-01-12T10:06:40.772Z,102042.33
2019-01-12T10:09:09.789Z,102023.42
2019-01-12T10:11:38.859Z,102013.91
2019-01-12T10:14:07.960Z,102028.89
2019-01-12T10:16:37.388Z,102036.90
2019-01-12T10:19:06.755Z,102036.90
2019-01-12T10:21:35.952Z,102047.05
2019-01-12T10:24:05.043Z,102056.63
2019-01-12T10:26:34.509Z,102059.39
2019-01-12T10:29:03.568Z,102067.50
2019-01-12T10:31:33.373Z,102071.16
2019-01-12T10:34:03.203Z,102060.87
2019-01-12T10:36:32.615Z,102051.53
2019-01-12T10:39:01.641Z,102046.56
2019-01-12T10:41:31.127Z,102051.38
2019-01-12T10:44:00.233Z,102046.50
2019-01-12T10:46:29.283Z,102038.20
2019-01-12T10:48:58.443Z,102038.70
2019-01-12T10:51:27.550Z,102039.59
2019-01-12T10:53:56.645Z,102031.11
2019-01-12T10:56:25.764Z,102019.00
2019-01-12T10:58:55.879Z,102026.62
2019-01-12T11:01:25.085Z,102003.13
2019-01-12T11:03:54.136Z,101989.52
2019-01-12T11:06:23.317Z,101981.12
2019-01-12T11:08:52.668Z,101996.36
2019-01-12T11:11:22.062Z,101973.40
2019-01-12T11:13:51.205Z,101960.63
2019-01-12T11:16:20.410Z,101966.09
2019-01-12T11:18:49.804Z,101969.34
2019-01-12T11:21:18.963Z,101974.53
2019-01-12T11:23:48.067Z,101971.94
2019-01-12T11:26:17.462Z,101959.88
2019-01-12T11:28:47.025Z,101952.28
2019-01-12T11:31:19.798Z,101952.20
2019-01-12T11:33:47.299Z,101953.91
2019-01-12T11:36:16.456Z,101945.47
2019-01-12T11:38:45.562Z,101931.67
2019-01-12T11:41:14.744Z,101938.20
2019-01-12T11:43:44.143Z,101930.64
2019-01-12T11:46:13.471Z,101915.44
2019-01-12T11:48:43.650Z,101916.14
2019-01-12T11:51:14.281Z,101912.34
2019-01-12T11:53:43.374Z,101902.33
2019-01-12T11:56:12.833Z,101893.23
2019-01-12T11:58:41.916Z,101899.39
2019-01-12T12:01:10.989Z,101895.47
2019-01-12T12:03:40.369Z,101891.95
2019-01-12T12:06:10.123Z,101888.59
2019-01-12T12:08:39.947Z,101879.58
2019-01-12T12:11:09.334Z,101883.25
2019-01-12T12:13:38.412Z,101881.55
2019-01-12T12:16:07.615Z,101863.91
2019-01-12T12:18:37.010Z,101852.81
2019-01-12T12:21:06.457Z,101850.73
2019-01-12T12:23:35.623Z,101857.34
2019-01-12T12:26:04.827Z,101854.41
2019-01-12T12:28:34.170Z,101850.91
2019-01-12T12:31:03.329Z,101852.36
2019-01-12T12:33:32.477Z,101837.55
2019-01-12T12:36:01.875Z,101829.13
2019-01-12T12:38:30.987Z,101840.23
2019-01-12T12:41:00.391Z,101824.94
2019-01-12T12:43:29.517Z,101820.30
2019-01-12T12:45:58.734Z,101821.84
2019-01-12T12:48:27.996Z,101819.50
2019-01-12T12:50:57.428Z,101814.21
2019-01-12T12:53:26.438Z,101808.16
2019-01-12T12:55:55.973Z,101785.64
2019-01-12T12:58:25.378Z,101795.55
2019-01-12T13:00:54.861Z,101793.78
2019-01-12T13:03:24.053Z,101792.70
2019-01-12T13:05:53.372Z,101787.73
2019-01-12T13:08:22.503Z,101774.46
2019-01-12T13:10:51.592Z,101775.80
2019-01-12T13:13:21.409Z,101773.27
2019-01-12T13:15:50.487Z,101771.92
2019-01-12T13:18:20.288Z,101761.30
2019-01-12T13:20:49.446Z,101761.66
2019-01-12T13:23:20.116Z,101765.20
2019-01-12T13:25:49.869Z,101760.82
2019-01-12T13:28:19.289Z,101764.56
2019-01-12T13:30:48.876Z,101750.76
2019-01-12T13:33:17.946Z,101755.97
2019-01-12T13:35:48.675Z,101749.16
2019-01-12T13:38:18.112Z,101749.75
2019-01-12T13:40:47.223Z,101748.21
2019-01-12T13:43:16.575Z,101743.03
2019-01-12T13:45:46.050Z,101740.49
2019-01-12T13:48:15.147Z,101732.95
2019-01-12T13:50:44.505Z,101732.38
2019-01-12T13:53:13.889Z,101731.25
2019-01-12T13:55:42.927Z,101735.49
2019-01-12T13:58:11.961Z,101723.59
2019-01-12T14:00:41.658Z,101732.10
2019-01-12T14:03:10.701Z,101719.09
2019-01-12T14:05:39.789Z,101720.20
2019-01-12T14:08:08.969Z,101721.05
2019-01-12T14:10:38.450Z,101719.14
2019-01-12T14:13:08.018Z,101715.08
2019-01-12T14:15:37.226Z,101718.78
2019-01-12T14:18:06.516Z,101715.06
2019-01-12T14:20:37.763Z,101711.67
2019-01-12T14:23:07.378Z,101712.45
2019-01-12T14:25:36.908Z,101705.42
2019-01-12T14:28:06.643Z,101697.77
2019-01-12T14:30:35.719Z,101702.81
2019-01-12T14:33:05.605Z,101708.37
2019-01-12T14:35:35.023Z,101695.93
2019-01-12T14:38:04.305Z,101691.92
2019-01-12T14:40:33.668Z,101695.51
2019-01-12T14:43:02.747Z,101702.26
2019-01-12T14:45:33.728Z,101699.68
2019-01-12T14:48:02.999Z,101697.55
2019-01-12T14:50:32.481Z,101698.11
2019-01-12T14:53:01.872Z,101696.23
2019-01-12T14:55:31.537Z,101700.59
2019-01-12T14:58:02.594Z,101683.56
2019-01-12T15:00:31.349Z,101692.08
2019-01-12T15:03:00.742Z,101685.19
2019-01-12T15:05:33.992Z,101693.19
2019-01-12T15:08:03.034Z,101690.32
2019-01-12T15:10:33.430Z,101693.54
2019-01-12T15:13:02.461Z,101696.91
2019-01-12T15:15:31.892Z,101692.62
2019-01-12T15:18:00.993Z,101696.16
2019-01-12T15:20:30.879Z,101679.41
2019-01-12T15:23:00.755Z,101681.66
2019-01-12T15:25:30.907Z,101685.73
2019-01-12T15:28:00.990Z,101681.94
2019-01-12T15:30:31.830Z,101687.13
2019-01-12T15:33:11.279Z,101686.64
2019-01-12T15:35:42.187Z,101688.13
2019-01-12T15:38:11.285Z,101682.22
2019-01-12T15:40:41.994Z,101682.22
2019-01-12T15:43:11.387Z,101687.98
2019-01-12T15:45:43.873Z,101680.27
2019-01-12T15:48:12.935Z,101682.09
2019-01-12T15:50:41.987Z,101680.75
2019-01-12T15:53:11.019Z,101676.86
2019-01-12T15:55:40.541Z,101675.04
2019-01-12T15:58:16.160Z,101679.11
2019-01-12T16:00:43.525Z,101665.62
2019-01-12T16:03:12.605Z,101671.23
2019-01-12T16:05:42.002Z,101666.31
2019-01-12T16:08:11.086Z,101674.34
2019-01-12T16:10:40.518Z,101673.85
2019-01-12T16:13:09.631Z,101664.41
2019-01-12T16:15:41.025Z,101666.16
2019-01-12T16:18:10.139Z,101666.38
2019-01-12T16:20:43.503Z,101659.78
2019-01-12T16:23:13.832Z,101657.55
2019-01-12T16:25:43.985Z,101652.25
2019-01-12T16:28:13.478Z,101651.91
2019-01-12T16:30:42.959Z,101642.11
2019-01-12T16:33:12.360Z,101642.41
2019-01-12T16:35:45.265Z,101656.91
2019-01-12T16:38:14.574Z,101655.05
2019-01-12T16:40:43.907Z,101659.27
2019-01-12T16:43:13.045Z,101653.52
2019-01-12T16:45:42.084Z,101654.86
2019-01-12T16:48:11.141Z,101646.06
2019-01-12T16:50:41.220Z,101649.64
2019-01-12T16:53:10.595Z,101643.97
2019-01-12T16:55:39.988Z,101652.39
2019-01-12T16:58:09.119Z,101646.48
2019-01-12T17:00:38.547Z,101641.89
2019-01-12T17:03:07.821Z,101639.22
2019-01-12T17:05:36.973Z,101633.81
2019-01-12T17:08:06.366Z,101629.87
2019-01-12T17:10:35.926Z,101614.20
2019-01-12T17:13:05.609Z,101624.19
2019-01-12T17:15:35.516Z,101624.39
2019-01-12T17:18:05.280Z,101628.53
2019-01-12T17:20:34.276Z,101623.96
2019-01-12T17:23:04.942Z,101626.63
2019-01-12T17:25:34.457Z,101645.51
2019-01-12T17:28:03.533Z,101651.69
2019-01-12T17:30:32.579Z,101645.51
2019-01-12T17:33:01.630Z,101658.71
2019-01-12T17:35:30.689Z,101654.30
2019-01-12T17:38:00.210Z,101644.38
2019-01-12T17:40:29.370Z,101658.14
2019-01-12T17:42:58.452Z,101644.98
2019-01-12T17:45:27.993Z,101644.44
2019-01-12T17:47:57.083Z,101644.72
2019-01-12T17:50:27.668Z,101635.42
2019-01-12T17:52:56.991Z,101622.69
2019-01-12T17:55:27.493Z,101637.37
2019-01-12T17:57:57.228Z,101631.62
2019-01-12T18:00:33.478Z,101633.97
2019-01-12T18:03:02.637Z,101625.23
2019-01-12T18:05:32.208Z,101622.37
2019-01-12T18:08:01.540Z,101624.13
2019-01-12T18:10:30.616Z,101615.38
2019-01-12T18:12:59.960Z,101619.27
2019-01-12T18:15:29.036Z,101610.61
2019-01-12T18:17:58.098Z,101610.19
2019-01-12T18:20:27.136Z,101611.59
2019-01-12T18:22:56.206Z,101606.18
2019-01-12T18:25:25.287Z,101601.11
2019-01-12T18:27:54.792Z,101594.16
2019-01-12T18:30:24.158Z,101598.52
2019-01-12T18:32:53.525Z,101606.74
2019-01-12T18:35:22.832Z,101606.81
2019-01-12T18:37:51.892Z,101607.02
2019-01-12T18:40:20.932Z,101614.34
2019-01-12T18:42:50.060Z,101606.66
2019-01-12T18:45:19.470Z,101613.11
2019-01-12T18:47:48.518Z,101615.91
2019-01-12T18:50:19.833Z,101612.17
2019-01-12T18:52:48.954Z,101615.17
2019-01-12T18:55:18.628Z,101615.67
2019-01-12T18:57:47.957Z,101625.84
2019-01-12T19:00:22.068Z,101626.79
2019-01-12T19:02:51.528Z,101623.05
2019-01-12T19:05:20.633Z,101627.06
2019-01-12T19:07:49.950Z,101627.63
2019-01-12T19:10:20.224Z,101624.13
2019-01-12T19:12:49.755Z,101626.13
2019-01-12T19:15:29.992Z,101623.26
2019-01-12T19:17:59.739Z,101622.55
2019-01-12T19:20:28.866Z,101615.88
2019-01-12T19:22:58.178Z,101615.67
2019-01-12T19:25:27.215Z,101611.73
2019-01-12T19:27:56.283Z,101613.77
2019-01-12T19:30:26.363Z,101612.59
2019-01-12T19:32:55.502Z,101605.25
2019-01-12T19:35:24.535Z,101603.78
2019-01-12T19:37:53.652Z,101606.31
2019-01-12T19:40:24.811Z,101607.79
2019-01-12T19:42:53.992Z,101600.34
2019-01-12T19:45:23.386Z,101597.25
2019-01-12T19:47:52.526Z,101596.11
2019-01-12T19:50:25.919Z,101593.57
2019-01-12T19:52:55.191Z,101591.20
2019-01-12T19:55:24.237Z,101593.45
2019-01-12T19:57:53.257Z,101598.59
2019-01-12T20:00:24.986Z,101594.85
2019-01-12T20:02:54.332Z,101594.86
2019-01-12T20:05:23.660Z,101587.09
2019-01-12T20:07:52.735Z,101577.81
2019-01-12T20:10:22.017Z,101566.29
2019-01-12T20:12:51.247Z,101562.05
2019-01-12T20:15:22.641Z,101561.72
2019-01-12T20:17:51.893Z,101564.48
2019-01-12T20:20:21.276Z,101568.45
2019-01-12T20:22:50.942Z,101559.52
2019-01-12T20:25:31.574Z,101574.50
2019-01-12T20:28:03.553Z,101565.98
2019-01-12T20:30:59.380Z,101559.37
2019-01-12T20:33:53.113Z,101565.59
2019-01-12T20:36:52.832Z,101562.97
2019-01-12T20:39:48.846Z,101558.27
2019-01-12T20:42:53.637Z,101550.39
2019-01-12T20:45:53.590Z,101536.88
2019-01-12T20:48:48.138Z,101544.12
2019-01-12T20:51:55.491Z,101542.78
2019-01-12T20:55:14.728Z,101537.80
2019-01-12T20:58:13.876Z,101538.17
2019-01-12T21:01:07.633Z,101542.09
2019-01-12T21:04:19.787Z,101531.91
2019-01-12T21:07:33.602Z,101537.08
2019-01-12T21:10:40.301Z,101535.63
2019-01-12T21:13:43.915Z,101528.39
2019-01-12T21:16:17.400Z,101530.76
2019-01-12T21:18:46.556Z,101528.73
2019-01-12T21:21:16.083Z,101531.77
2019-01-12T21:23:45.143Z,101533.57
2019-01-12T21:26:14.223Z,101537.53
2019-01-12T21:28:43.716Z,101536.52
2019-01-12T21:31:13.246Z,101535.13
2019-01-12T21:33:42.325Z,101522.38
2019-01-12T21:36:11.452Z,101518.68
2019-01-12T21:38:40.574Z,101514.75
2019-01-12T21:41:09.729Z,101508.45
2019-01-12T21:43:39.882Z,101506.88
2019-01-12T21:46:09.264Z,101521.34
2019-01-12T21:48:38.436Z,101516.28
2019-01-12T21:51:08.166Z,101519.05
2019-01-12T21:53:37.190Z,101505.81
2019-01-12T21:56:06.918Z,101496.38
2019-01-12T21:58:36.310Z,101496.66
2019-01-12T22:01:05.516Z,101497.66
2019-01-12T22:03:34.895Z,101500.25
2019-01-12T22:06:03.929Z,101494.80
2019-01-12T22:08:33.364Z,101492.31
2019-01-12T22:11:02.428Z,101486.33
2019-01-12T22:13:31.544Z,101493.19
2019-01-12T22:16:01.054Z,101499.55
2019-01-12T22:18:30.476Z,101496.24
2019-01-12T22:20:59.580Z,101496.88
2019-01-12T22:23:29.866Z,101491.31
2019-01-12T22:25:58.978Z,101492.18
2019-01-12T22:28:28.034Z,101492.55
2019-01-12T22:30:57.391Z,101489.17
2019-01-12T22:33:26.822Z,101499.00
2019-01-12T22:35:55.994Z,101500.02
2019-01-12T22:38:25.132Z,101502.03
2019-01-12T22:40:54.271Z,101496.83
2019-01-12T22:43:24.811Z,101490.79
2019-01-12T22:45:54.353Z,101482.50
2019-01-12T22:48:23.393Z,101483.05
2019-01-12T22:50:52.842Z,101483.09
2019-01-12T22:53:21.864Z,101480.66
2019-01-12T22:55:51.341Z,101466.08
2019-01-12T22:58:20.566Z,101470.42
2019-01-12T23:01:26.903Z,101468.75
2019-01-12T23:03:59.554Z,101464.38
2019-01-12T23:06:29.330Z,101469.62
2019-01-12T23:08:58.956Z,101468.75
2019-01-12T23:11:28.282Z,101450.36
2019-01-12T23:13:58.340Z,101460.18
2019-01-12T23:16:28.012Z,101454.62
2019-01-12T23:18:57.395Z,101446.55
2019-01-12T23:21:26.468Z,101443.52
2019-01-12T23:23:55.476Z,101446.27
2019-01-12T23:26:24.554Z,101447.38
2019-01-12T23:28:53.631Z,101444.02
2019-01-12T23:31:22.648Z,101437.84
2019-01-12T23:33:51.750Z,101432.28
2019-01-12T23:36:20.798Z,101438.39
2019-01-12T23:38:49.850Z,101442.07
2019-01-12T23:41:18.856Z,101436.31
2019-01-12T23:43:47.893Z,101451.63
2019-01-12T23:46:16.986Z,101454.36
2019-01-12T23:48:46.001Z,101451.91
2019-01-12T23:51:15.178Z,101443.26
2019-01-12T23:53:44.252Z,101434.28
2019-01-12T23:56:13.330Z,101433.58
2019-01-12T23:58:42.389Z,101430.75
